Bethel, Ohio
Current Conditions -  °F | °C
As of 9:53 PM on Saturday 22 Nov 2014 (Local Time) from KLUK Reporting Station
Few Clouds Few Clouds  
Wind Chill: 45°   Ceiling: Unl
Heat Index: 47°   Visibility: 10mi
Dew Point: 35°   Wind: 5mph
Humidity: 63%   Direction: 270°W
Pressure: 30.09"   Gusts: NA
Location:  38.96°N, 84.08°W
Report Text: KLUK 230253Z 27004KT 10SM FEW100 08/02 A3009 RMK AO2 SLP191 T00830017 58003
Loading
Personal Weather Stations






























Interactive Weather Map New forecast layout! Learn more

10-Day Weather Forecast

Advertisements
Track Severe Weather on mobile